< Typhoon 198307 1983 Season Typhoon 198309 >
Typhoon 198308 (DOM)
General InformationTrack Information on Google MapsDetailed Wind InformationList of All Images || Disaster Info.ResourceGoogle EarthGE AnimationAtom FeedGeoJSON
Detalied Best Track (Time Zone = UTC)
Year Month Day Hour Lat. Long. Pressure (hPa) Wind (kt) Class Image Chart
1983 8 18 06 15.0 136.5 1004 0 2 Image Chart
1983 8 18 12 15.3 135.8 1006 0 2 Image Chart
1983 8 18 18 15.6 135.3 1004 0 2 Image Chart
1983 8 19 00 15.8 134.5 1004 0 2 Image Chart
1983 8 19 06 16.2 133.5 1004 0 2 Image Chart
1983 8 19 12 16.6 132.7 1004 0 2 Image Chart
1983 8 19 18 16.8 132.2 1002 0 2 Image Chart
1983 8 20 00 17.0 132.0 1002 0 2 Image Chart
1983 8 20 06 17.3 132.3 1000 35 3 Image Chart
1983 8 20 12 17.9 132.7 998 35 3 Image Chart
1983 8 20 18 18.7 133.8 998 35 3 Image Chart
1983 8 21 00 19.4 134.9 1000 35 3 Image Chart
1983 8 21 06 20.0 135.5 1002 0 2 Image Chart
1983 8 21 12 20.6 136.0 1002 0 2 Image Chart
1983 8 21 18 21.5 137.0 1002 0 2 Image Chart
1983 8 22 00 22.5 137.5 1002 0 2 Image Chart
1983 8 22 06 23.4 138.3 1002 0 2 Image Chart
1983 8 22 12 24.0 140.0 1002 0 2 Image Chart
1983 8 22 18 24.5 141.5 1000 0 2 Image Chart
1983 8 23 00 24.9 142.7 996 40 3 Image Chart
1983 8 23 06 25.2 143.3 996 40 3 Image Chart
1983 8 23 12 25.3 143.7 996 40 3 Image Chart
1983 8 23 18 25.3 144.0 996 40 3 Image Chart
1983 8 24 00 25.1 144.1 996 35 3 Image Chart
1983 8 24 06 25.4 144.5 996 35 3 Image Chart
1983 8 24 12 25.3 144.5 998 35 3 Image Chart
1983 8 24 18 25.8 144.2 996 35 3 Image Chart
1983 8 25 00 26.6 143.6 996 40 3 Image Chart
1983 8 25 06 27.4 142.8 998 35 3 Image Chart
1983 8 25 12 28.2 141.9 1000 35 3 Image Chart
1983 8 25 18 29.1 141.0 1004 0 2 Image Chart
1983 8 26 00 30.0 141.2 1004 0 2 Image Chart
1983 8 26 06 31.3 141.5 1004 0 2 Image Chart
1983 8 26 12 32.0 141.9 1004 0 2 Image Chart
1983 8 26 18 32.5 142.1 1006 0 2 Image Chart
1983 8 27 00 32.5 143.0 1006 0 2 Image Chart
1983 8 27 06 32.2 144.0 1006 0 2 Image Chart
1983 8 27 12 31.7 145.0 1008 0 2 Image Chart
1983 8 27 18 31.1 146.0 1008 0 2 Image Chart
1983 8 28 00 30.5 147.0 1008 0 2 Image Chart
1983 8 28 06 30.0 148.0 1008 0 2 Image Chart
1983 8 28 12 29.0 149.0 1008 0 2 Image Chart
1983 8 28 18 28.0 150.0 1008 0 2 Image Chart
1983 8 29 00 28.0 152.0 1008 0 6 Image Chart
1983 8 29 06 28.0 154.0 1008 0 6 Image Chart
1983 8 29 12 28.0 156.0 1008 0 6 Image Chart
1983 8 29 18 28.0 158.0 1008 0 6 Image Chart
1983 8 30 00 29.0 160.0 1010 0 6 Image Chart
1983 8 30 06 29.0 162.0 1010 0 6 Image Chart
1983 8 30 12 29.0 165.0 1010 0 6 Image Chart
1983 8 30 18 30.0 168.0 1010 0 6 Image Chart
1983 8 31 00 32.0 172.0 1008 0 6 Image Chart
1983 8 31 06 34.0 176.0 1006 0 6 Image Chart
1983 8 31 12 37.0 180.0 1004 0 6 Image Chart
Japan Meteorological Agency Best Track Data | Correction Date : 1992-10-21
< Typhoon 198307 1983 Season Typhoon 198309 >

Help